Time;durP1;ratioP1;P1;durP2;ratioP2;P2;SDS_P1;SDS_P2;PMS_P1;PMS_P2;Temp;Humidity;BMP_temperature;BMP_pressure;BME280_temperature;BME280_humidity;BME280_pressure;Samples;Min_cycle;Max_cycle;Signal;HPM_P1;HPM_P2
2020/12/18 00:02:21;;;;;;;24.00;16.50;;;6.40;99.90;;;;;;5042884;28;20462;-52
2020/12/18 00:04:46;;;;;;;26.80;16.30;;;5.40;99.90;;;;;;5051920;28;20385;-52
2020/12/18 00:07:13;;;;;;;25.95;16.48;;;5.00;99.90;;;;;;5049050;28;20479;-53
2020/12/18 00:09:39;;;;;;;26.97;16.37;;;4.90;99.90;;;;;;5051428;28;20384;-52
2020/12/18 00:12:04;;;;;;;28.33;16.85;;;4.80;99.90;;;;;;5049700;28;20484;-53
2020/12/18 00:14:30;;;;;;;22.80;14.27;;;4.70;99.90;;;;;;5050743;28;20902;-53
2020/12/18 00:16:56;;;;;;;24.42;14.10;;;4.60;99.90;;;;;;5050816;28;20439;-54
2020/12/18 00:19:21;;;;;;;23.75;14.10;;;4.50;99.90;;;;;;5051360;28;20676;-52
2020/12/18 00:21:47;;;;;;;25.90;14.73;;;4.40;99.90;;;;;;5050059;28;20402;-53
2020/12/18 00:24:13;;;;;;;27.38;15.85;;;4.30;99.90;;;;;;5051271;28;20404;-52
2020/12/18 00:26:38;;;;;;;27.50;16.70;;;4.20;99.90;;;;;;5044178;28;20464;-53
2020/12/18 00:29:04;;;;;;;23.80;15.50;;;4.10;99.90;;;;;;5049195;28;20774;-52
2020/12/18 00:31:30;;;;;;;25.70;16.90;;;6.70;99.90;;;;;;5052193;28;20412;-52
2020/12/18 00:33:55;;;;;;;28.73;17.37;;;4.00;99.90;;;;;;5049677;28;20747;-52
2020/12/18 00:36:21;;;;;;;31.67;16.77;;;3.90;99.90;;;;;;5050474;28;20389;-53
2020/12/18 00:38:46;;;;;;;33.60;21.33;;;3.80;99.90;;;;;;5050083;28;20524;-53
2020/12/18 00:41:12;;;;;;;33.70;22.73;;;4.90;99.90;;;;;;5050664;28;20385;-52
2020/12/18 00:43:38;;;;;;;33.00;21.15;;;3.90;99.90;;;;;;5051468;28;20390;-53
2020/12/18 00:46:07;;;;;;;28.00;20.23;;;3.90;99.90;;;;;;5047820;28;20397;-53
2020/12/18 00:48:33;;;;;;;41.00;25.30;;;4.00;99.90;;;;;;5051434;28;20392;-52
2020/12/18 00:50:58;;;;;;;53.77;25.50;;;6.90;99.90;;;;;;5048875;28;20389;-53
2020/12/18 00:53:24;;;;;;;91.07;29.05;;;4.50;99.90;;;;;;5050417;28;20393;-53
2020/12/18 00:55:50;;;;;;;46.60;24.60;;;4.40;99.90;;;;;;5050117;28;20401;-53
2020/12/18 00:58:16;;;;;;;273.85;45.42;;;4.30;99.90;;;;;;5049555;28;20405;-52
2020/12/18 01:00:41;;;;;;;178.77;35.33;;;4.30;99.90;;;;;;5050037;28;20464;-52
2020/12/18 01:03:07;;;;;;;96.77;27.50;;;4.40;99.90;;;;;;5048219;28;20949;-52
2020/12/18 01:05:33;;;;;;;106.60;29.50;;;4.40;99.90;;;;;;5050777;28;20388;-53
2020/12/18 01:07:58;;;;;;;65.63;24.13;;;4.40;99.90;;;;;;5049877;28;20464;-55
2020/12/18 01:10:24;;;;;;;90.13;27.08;;;4.40;99.90;;;;;;5049646;28;20393;-53
2020/12/18 01:12:50;;;;;;;72.67;25.07;;;4.30;99.90;;;;;;5051224;28;20413;-53
2020/12/18 01:15:16;;;;;;;43.95;23.63;;;3.30;99.90;;;;;;5048623;28;20393;-53
2020/12/18 01:17:42;;;;;;;30.40;21.23;;;4.40;99.90;;;;;;5050601;28;20413;-52
2020/12/18 01:20:08;;;;;;;28.73;20.73;;;4.30;99.90;;;;;;5048176;28;20424;-53
2020/12/18 01:22:33;;;;;;;26.90;19.03;;;4.00;99.90;;;;;;5049831;28;20468;-52
2020/12/18 01:24:59;;;;;;;27.58;19.95;;;4.00;99.90;;;;;;5050219;28;20411;-55
2020/12/18 01:27:24;;;;;;;37.40;18.50;;;3.90;99.90;;;;;;5047434;28;20405;-52
2020/12/18 01:29:50;;;;;;;30.93;21.53;;;5.10;99.90;;;;;;5050664;28;20424;-52
2020/12/18 01:32:16;;;;;;;29.90;18.33;;;3.70;99.90;;;;;;5080289;28;20433;-52
2020/12/18 01:34:44;;;;;;;34.37;18.97;;;3.70;99.90;;;;;;5050481;28;20385;-52
2020/12/18 01:37:12;;;;;;;34.05;18.85;;;4.80;99.90;;;;;;5049073;28;20409;-53
2020/12/18 01:39:38;;;;;;;31.63;18.88;;;4.00;99.90;;;;;;5048617;28;20930;-52
2020/12/18 01:42:04;;;;;;;31.42;18.10;;;4.20;99.90;;;;;;5049857;28;20534;-51
2020/12/18 01:44:30;;;;;;;33.03;19.27;;;4.40;99.90;;;;;;5050288;28;20871;-52
2020/12/18 01:46:56;;;;;;;30.23;17.15;;;5.70;99.90;;;;;;5048331;28;20401;-52
2020/12/18 01:49:22;;;;;;;22.05;15.40;;;5.90;99.90;;;;;;5050016;28;20396;-52
2020/12/18 01:51:48;;;;;;;26.40;16.97;;;5.30;99.90;;;;;;5049979;28;20385;-52
2020/12/18 01:54:17;;;;;;;26.95;17.05;;;4.30;99.90;;;;;;5047985;28;20404;-52
2020/12/18 01:56:42;;;;;;;22.33;14.68;;;4.50;99.90;;;;;;5049412;28;20380;-52
2020/12/18 01:59:08;;;;;;;25.15;15.40;;;4.40;99.90;;;;;;5044350;28;20512;-52
2020/12/18 02:01:34;;;;;;;29.30;16.20;;;4.30;99.90;;;;;;5050105;28;20863;-52
2020/12/18 02:04:00;;;;;;;26.40;15.37;;;4.30;99.90;;;;;;5048491;28;20409;-52
2020/12/18 02:06:29;;;;;;;26.25;15.52;;;5.60;99.90;;;;;;5048818;28;20399;-52
2020/12/18 02:08:55;;;;;;;27.40;15.75;;;4.00;99.90;;;;;;5050102;28;20455;-52
2020/12/18 02:11:21;;;;;;;27.53;15.50;;;5.40;99.90;;;;;;5046963;28;20389;-52
2020/12/18 02:13:52;;;;;;;26.05;16.00;;;3.90;99.90;;;;;;5049806;28;20705;-52
2020/12/18 02:16:18;;;;;;;27.02;15.45;;;5.20;99.90;;;;;;5047676;28;20405;-52
2020/12/18 02:18:44;;;;;;;25.70;16.00;;;3.80;99.90;;;;;;5049679;28;20474;-53
2020/12/18 02:21:10;;;;;;;25.45;15.63;;;3.80;99.90;;;;;;5048827;28;20404;-53
2020/12/18 02:23:44;;;;;;;24.50;14.90;;;3.90;99.90;;;;;;5048036;28;20397;-51
2020/12/18 02:26:11;;;;;;;25.23;16.02;;;3.70;99.90;;;;;;5049183;28;20384;-51
2020/12/18 02:28:41;;;;;;;26.45;15.88;;;3.80;99.90;;;;;;5047812;28;20475;-52
2020/12/18 02:31:08;;;;;;;24.52;15.00;;;3.80;99.90;;;;;;5049170;28;20381;-53
2020/12/18 02:33:35;;;;;;;27.48;15.70;;;3.80;99.90;;;;;;5053194;28;20444;-53
2020/12/18 02:36:01;;;;;;;49.42;19.60;;;3.90;99.90;;;;;;5052334;28;20393;-55
2020/12/18 02:38:27;;;;;;;64.68;20.23;;;4.20;99.90;;;;;;5053287;28;20393;-53
2020/12/18 02:40:54;;;;;;;55.72;19.08;;;4.70;99.90;;;;;;5052641;28;20401;-53
2020/12/18 02:43:20;;;;;;;36.00;17.65;;;5.70;99.90;;;;;;5052055;28;20470;-52
2020/12/18 02:45:46;;;;;;;46.08;18.67;;;6.30;99.90;;;;;;5051817;28;20398;-52
2020/12/18 02:48:12;;;;;;;28.40;15.77;;;5.00;99.90;;;;;;5052717;28;20779;-52
2020/12/18 02:50:38;;;;;;;30.63;16.37;;;5.40;99.90;;;;;;5053728;28;20407;-52
2020/12/18 02:53:14;;;;;;;30.83;17.20;;;4.50;99.90;;;;;;5051228;28;20454;-55
2020/12/18 02:55:40;;;;;;;36.47;18.73;;;3.90;99.90;;;;;;5053266;28;20723;-53
2020/12/18 02:58:06;;;;;;;33.35;16.85;;;4.90;99.90;;;;;;5050533;28;20417;-53
2020/12/18 03:00:32;;;;;;;33.70;17.17;;;5.70;99.90;;;;;;5053477;28;20740;-52
2020/12/18 03:02:58;;;;;;;44.33;18.70;;;6.40;99.90;;;;;;5051590;28;20393;-52
2020/12/18 03:05:23;;;;;;;86.82;23.85;;;3.70;99.90;;;;;;5052509;28;21336;-52
2020/12/18 03:07:49;;;;;;;93.40;23.30;;;4.00;99.90;;;;;;5051731;28;20470;-51
2020/12/18 03:10:14;;;;;;;54.87;21.17;;;3.60;99.90;;;;;;5052144;28;21192;-51
2020/12/18 03:12:40;;;;;;;34.22;18.58;;;6.30;99.90;;;;;;5052250;28;20429;-54
2020/12/18 03:15:05;;;;;;;33.23;18.83;;;3.60;99.90;;;;;;5050677;28;20881;-52
2020/12/18 03:17:31;;;;;;;27.15;18.17;;;3.80;99.90;;;;;;5052963;28;20439;-52
2020/12/18 03:19:57;;;;;;;30.80;18.50;;;3.50;99.90;;;;;;5052087;28;20389;-52
2020/12/18 03:22:22;;;;;;;23.48;16.00;;;3.60;99.90;;;;;;5050386;28;20431;-52
2020/12/18 03:24:48;;;;;;;26.47;15.53;;;3.50;99.90;;;;;;5053249;28;20425;-52
2020/12/18 03:27:13;;;;;;;23.37;16.20;;;5.50;99.90;;;;;;5051307;28;20378;-53
2020/12/18 03:29:39;;;;;;;23.15;15.65;;;5.60;99.90;;;;;;5051446;28;20409;-52
2020/12/18 03:32:04;;;;;;;25.20;15.70;;;4.70;99.90;;;;;;5052172;28;20386;-54
2020/12/18 03:34:30;;;;;;;22.98;15.30;;;3.60;99.90;;;;;;5051483;28;20400;-52
2020/12/18 03:36:56;;;;;;;24.67;16.50;;;5.70;99.90;;;;;;5052320;28;20739;-52
2020/12/18 03:39:21;;;;;;;22.43;15.10;;;3.70;99.90;;;;;;5051658;28;20505;-52
2020/12/18 03:41:47;;;;;;;19.15;13.52;;;6.80;99.90;;;;;;5050612;28;20432;-52
2020/12/18 03:44:14;;;;;;;22.75;15.00;;;4.20;99.90;;;;;;5049523;28;20389;-53
2020/12/18 03:46:39;;;;;;;20.17;14.82;;;4.00;99.90;;;;;;5052270;28;20776;-52
2020/12/18 03:49:05;;;;;;;24.33;15.80;;;7.50;99.90;;;;;;5050348;28;20491;-52
2020/12/18 03:51:31;;;;;;;21.80;15.00;;;4.70;99.90;;;;;;5050775;28;20451;-52
2020/12/18 03:53:56;;;;;;;22.80;15.10;;;3.90;99.90;;;;;;5052325;28;20389;-52
2020/12/18 03:56:22;;;;;;;21.60;14.93;;;4.00;99.90;;;;;;5051847;28;20374;-52
2020/12/18 03:58:47;;;;;;;24.10;15.47;;;5.20;99.90;;;;;;5050621;28;20474;-52
2020/12/18 04:01:13;;;;;;;22.80;14.95;;;7.00;99.90;;;;;;5051455;28;20406;-52
2020/12/18 04:03:39;;;;;;;21.87;14.73;;;4.20;99.90;;;;;;5050749;28;20416;-52
2020/12/18 04:06:04;;;;;;;23.70;15.47;;;4.20;99.90;;;;;;5051360;28;20455;-55
2020/12/18 04:08:30;;;;;;;24.38;14.73;;;4.20;99.90;;;;;;5050442;28;20870;-52
2020/12/18 04:10:57;;;;;;;23.27;15.30;;;4.40;99.90;;;;;;5050450;28;20389;-52
2020/12/18 04:13:22;;;;;;;24.52;14.00;;;4.80;99.90;;;;;;5050735;28;20381;-52
2020/12/18 04:15:48;;;;;;;23.13;15.23;;;4.40;99.90;;;;;;5052394;28;20710;-52
2020/12/18 04:18:15;;;;;;;26.48;17.10;;;4.50;99.90;;;;;;5047881;28;20409;-53
2020/12/18 04:20:40;;;;;;;24.38;17.75;;;4.50;99.90;;;;;;5051512;28;20396;-52
2020/12/18 04:23:07;;;;;;;42.92;31.30;;;4.60;99.90;;;;;;5049218;28;20401;-52
2020/12/18 04:25:34;;;;;;;28.67;20.55;;;4.60;99.90;;;;;;5051432;28;20382;-52
2020/12/18 04:28:01;;;;;;;32.92;23.25;;;4.60;99.90;;;;;;5054439;28;20394;-52
2020/12/18 04:30:27;;;;;;;31.30;20.83;;;4.60;99.90;;;;;;5051210;28;20389;-52
2020/12/18 04:32:52;;;;;;;27.90;19.50;;;4.60;99.90;;;;;;5050928;28;20696;-52
2020/12/18 04:35:18;;;;;;;29.40;19.52;;;4.60;99.90;;;;;;5049968;28;20406;-52
2020/12/18 04:37:44;;;;;;;29.60;19.17;;;4.70;99.90;;;;;;5051108;28;20377;-53
2020/12/18 04:40:09;;;;;;;28.90;18.90;;;4.60;99.90;;;;;;5048330;28;20488;-52
2020/12/18 04:42:35;;;;;;;27.75;18.75;;;4.60;99.90;;;;;;5051230;28;20430;-52
2020/12/18 04:45:03;;;;;;;31.97;19.93;;;4.50;99.90;;;;;;5049582;28;20415;-55
2020/12/18 04:47:29;;;;;;;28.75;18.75;;;4.40;99.90;;;;;;5051128;28;20388;-52
2020/12/18 04:49:56;;;;;;;31.70;18.60;;;7.10;99.90;;;;;;5050968;28;20457;-52
2020/12/18 04:52:23;;;;;;;29.20;17.83;;;4.30;99.90;;;;;;5048234;28;20577;-52
2020/12/18 04:54:49;;;;;;;27.73;17.83;;;4.30;99.90;;;;;;5051226;28;20388;-52
2020/12/18 04:57:17;;;;;;;27.10;17.50;;;4.10;99.90;;;;;;5050611;28;20388;-52
2020/12/18 04:59:44;;;;;;;28.70;17.38;;;4.10;99.90;;;;;;5049589;28;20874;-52
2020/12/18 05:02:09;;;;;;;25.77;16.70;;;4.30;99.90;;;;;;5050683;28;20385;-52
2020/12/18 05:04:41;;;;;;;28.53;18.20;;;3.80;99.90;;;;;;5050375;28;20418;-52
2020/12/18 05:07:07;;;;;;;25.10;16.30;;;3.70;99.90;;;;;;5048938;28;20536;-52
2020/12/18 05:09:33;;;;;;;25.92;17.15;;;3.70;99.90;;;;;;5049350;28;20419;-52
2020/12/18 05:12:08;;;;;;;27.20;18.20;;;4.50;99.90;;;;;;5030692;28;20925;-52
2020/12/18 05:14:34;;;;;;;28.60;18.98;;;4.60;99.90;;;;;;5033131;28;20405;-52
2020/12/18 05:17:07;;;;;;;29.55;18.92;;;3.80;99.90;;;;;;5049739;28;20868;-52
2020/12/18 05:19:37;;;;;;;29.77;19.80;;;3.80;99.90;;;;;;5050978;28;20527;-51
2020/12/18 05:22:05;;;;;;;31.83;20.63;;;6.20;99.90;;;;;;5048490;28;20420;-54
2020/12/18 05:24:32;;;;;;;30.80;19.07;;;5.20;99.90;;;;;;5048570;28;20417;-52
2020/12/18 05:27:00;;;;;;;30.70;19.52;;;3.80;99.90;;;;;;5050678;28;20391;-52
2020/12/18 05:29:26;;;;;;;28.02;19.40;;;4.20;99.90;;;;;;5044958;28;20403;-52
2020/12/18 05:31:55;;;;;;;33.15;20.75;;;3.90;99.90;;;;;;5048744;28;20392;-52
2020/12/18 05:34:21;;;;;;;28.38;18.50;;;4.00;99.90;;;;;;5057387;28;20377;-52
2020/12/18 05:36:47;;;;;;;27.92;18.25;;;3.50;99.90;;;;;;5055900;28;20863;-52
2020/12/18 05:39:13;;;;;;;27.90;18.48;;;3.50;99.90;;;;;;5054948;28;20421;-52
2020/12/18 05:41:42;;;;;;;27.45;18.27;;;4.10;99.90;;;;;;5061950;28;20400;-52
2020/12/18 05:44:08;;;;;;;32.70;19.30;;;3.60;99.90;;;;;;5053695;28;20401;-52
2020/12/18 05:46:37;;;;;;;30.70;18.53;;;4.40;99.90;;;;;;5060450;28;20375;-52
2020/12/18 05:49:07;;;;;;;25.08;17.10;;;3.40;99.90;;;;;;5056812;28;20392;-54
2020/12/18 05:51:38;;;;;;;29.13;18.17;;;5.20;99.90;;;;;;5059356;28;20862;-52
2020/12/18 05:54:17;;;;;;;28.45;16.35;;;3.60;99.90;;;;;;5062116;28;20411;-54
2020/12/18 05:56:53;;;;;;;30.05;17.77;;;3.60;99.90;;;;;;5067369;28;20379;-52
2020/12/18 05:59:20;;;;;;;27.35;17.23;;;3.60;99.90;;;;;;5053527;28;20434;-52
2020/12/18 06:01:52;;;;;;;28.02;17.98;;;3.60;99.90;;;;;;5050399;28;20394;-52
2020/12/18 06:04:20;;;;;;;25.70;16.23;;;3.90;99.90;;;;;;5049611;28;20389;-52
2020/12/18 06:06:55;;;;;;;25.58;15.93;;;3.50;99.90;;;;;;5047597;28;20477;-51
2020/12/18 06:09:28;;;;;;;29.30;17.55;;;3.50;99.90;;;;;;5049004;28;20381;-52
2020/12/18 06:11:54;;;;;;;26.98;16.88;;;3.80;99.90;;;;;;5050701;28;20448;-52
2020/12/18 06:14:20;;;;;;;25.67;16.35;;;3.80;99.90;;;;;;5048649;28;20899;-51
2020/12/18 06:16:49;;;;;;;28.75;17.25;;;4.20;99.90;;;;;;5050063;28;20879;-51
2020/12/18 06:19:17;;;;;;;28.00;16.70;;;3.80;99.90;;;;;;5047189;28;20409;-52
2020/12/18 06:21:57;;;;;;;26.70;17.17;;;5.10;99.90;;;;;;5050023;28;20398;-52
2020/12/18 06:24:23;;;;;;;27.88;17.00;;;5.70;99.90;;;;;;5049218;28;20425;-52
2020/12/18 06:26:57;;;;;;;27.75;17.20;;;3.70;99.90;;;;;;5047847;28;20500;-52
2020/12/18 06:29:24;;;;;;;27.20;17.13;;;3.70;99.90;;;;;;5048641;28;20735;-52
2020/12/18 06:31:49;;;;;;;25.65;16.67;;;3.80;99.90;;;;;;5047926;28;20436;-52
2020/12/18 06:34:26;;;;;;;27.05;17.33;;;3.80;99.90;;;;;;5048773;28;20835;-52
2020/12/18 06:36:55;;;;;;;25.30;16.73;;;3.80;99.90;;;;;;5049706;28;20377;-52
2020/12/18 06:39:32;;;;;;;25.95;16.00;;;3.80;99.90;;;;;;5047676;28;20459;-52
2020/12/18 06:42:26;;;;;;;25.00;17.10;;;3.80;99.90;;;;;;5048282;28;20393;-51
2020/12/18 06:44:56;;;;;;;31.00;16.65;;;3.90;99.90;;;;;;5049272;28;20388;-51
2020/12/18 06:47:25;;;;;;;26.92;16.42;;;6.40;99.90;;;;;;5045882;28;20402;-51
2020/12/18 06:49:56;;;;;;;29.15;16.30;;;5.70;99.90;;;;;;5041601;28;20421;-51
2020/12/18 06:52:45;;;;;;;25.42;15.75;;;5.20;99.90;;;;;;5038022;28;20485;-50
2020/12/18 06:55:24;;;;;;;27.83;16.20;;;3.90;99.90;;;;;;5045104;28;20475;-51
2020/12/18 06:58:08;;;;;;;24.98;16.20;;;3.90;99.90;;;;;;5040373;28;20415;-52
2020/12/18 07:01:00;;;;;;;32.40;17.90;;;4.60;99.90;;;;;;5041921;28;20437;-52
2020/12/18 07:03:45;;;;;;;25.05;15.82;;;3.90;99.90;;;;;;5046774;28;20386;-52
2020/12/18 07:06:21;;;;;;;24.05;15.00;;;4.00;99.90;;;;;;5038919;28;20519;-51
2020/12/18 07:08:48;;;;;;;32.17;17.45;;;4.00;99.90;;;;;;5041824;28;20508;-51
2020/12/18 07:11:15;;;;;;;30.10;20.20;;;3.90;99.90;;;;;;5038458;28;20435;-52
2020/12/18 07:13:42;;;;;;;29.85;19.77;;;5.90;99.90;;;;;;5039802;28;20455;-51
2020/12/18 07:16:10;;;;;;;29.83;19.98;;;4.80;99.90;;;;;;5040040;28;20430;-54
2020/12/18 07:18:38;;;;;;;30.37;18.37;;;4.00;99.90;;;;;;5041834;28;20509;-51
2020/12/18 07:21:05;;;;;;;25.00;17.63;;;4.00;99.90;;;;;;5044677;28;20803;-54
2020/12/18 07:23:33;;;;;;;27.80;17.10;;;3.90;99.90;;;;;;5043630;28;20409;-51
2020/12/18 07:28:59;;;;;;;26.20;17.00;;;3.90;99.90;;;;;;5551410;22;20781;31
2020/12/18 07:31:27;;;;;;;29.10;16.70;;;4.00;99.90;;;;;;5039700;28;20471;-52
2020/12/18 07:33:55;;;;;;;25.48;15.70;;;4.00;99.90;;;;;;5050577;28;20390;-51
2020/12/18 07:36:21;;;;;;;28.00;16.13;;;5.80;99.90;;;;;;5048724;28;20388;-51
2020/12/18 07:38:47;;;;;;;27.23;16.85;;;4.20;99.90;;;;;;5049128;28;20409;-53
2020/12/18 07:41:16;;;;;;;23.42;15.70;;;4.30;99.90;;;;;;5049227;28;20402;-52
2020/12/18 07:43:43;;;;;;;25.05;15.57;;;4.30;99.90;;;;;;5049655;28;20419;-51
2020/12/18 07:46:11;;;;;;;26.33;15.13;;;4.20;99.90;;;;;;5049707;28;20846;-54
2020/12/18 07:48:40;;;;;;;27.17;16.77;;;4.30;99.90;;;;;;5048293;28;20412;-51
2020/12/18 07:51:07;;;;;;;26.90;15.98;;;4.30;99.90;;;;;;5050050;28;20393;-54
2020/12/18 07:53:35;;;;;;;23.77;16.05;;;4.50;99.90;;;;;;5049789;28;20385;-52
2020/12/18 07:56:09;;;;;;;23.73;15.60;;;6.70;99.90;;;;;;5050739;28;20427;-52
2020/12/18 07:58:45;;;;;;;28.25;15.65;;;4.50;99.90;;;;;;5050095;28;20417;-51
2020/12/18 08:01:14;;;;;;;23.23;15.23;;;4.60;99.90;;;;;;5047404;28;20401;-54
2020/12/18 08:03:43;;;;;;;21.58;14.77;;;4.80;99.90;;;;;;5049304;28;20409;-51
2020/12/18 08:06:14;;;;;;;25.57;15.43;;;4.90;99.90;;;;;;5048636;28;20481;-53
2020/12/18 08:08:41;;;;;;;32.20;17.55;;;4.90;99.90;;;;;;5050890;28;20396;-52
2020/12/18 08:11:16;;;;;;;22.45;16.38;;;5.10;99.90;;;;;;5051272;28;20386;-55
2020/12/18 08:13:42;;;;;;;26.45;16.65;;;5.10;99.90;;;;;;5047421;28;20734;-52
2020/12/18 08:16:10;;;;;;;26.50;16.25;;;5.10;99.90;;;;;;5030388;28;20397;-54
2020/12/18 08:18:37;;;;;;;27.30;16.73;;;5.00;99.90;;;;;;5049004;28;20416;-52
2020/12/18 08:21:04;;;;;;;25.33;15.93;;;5.90;99.90;;;;;;5050099;28;20392;-52
2020/12/18 08:23:34;;;;;;;22.50;15.35;;;5.10;99.90;;;;;;5048819;28;20482;-53
2020/12/18 08:26:02;;;;;;;26.17;15.80;;;5.20;99.90;;;;;;5049797;28;20416;-52
2020/12/18 08:28:29;;;;;;;22.85;14.60;;;5.50;99.90;;;;;;5041739;28;20484;-52
2020/12/18 08:30:57;;;;;;;33.42;23.02;;;5.70;99.90;;;;;;5048877;28;20433;-52
2020/12/18 08:33:24;;;;;;;29.25;20.20;;;5.80;99.90;;;;;;5049189;28;20389;-52
2020/12/18 08:35:54;;;;;;;27.60;18.70;;;5.80;99.90;;;;;;5031087;28;20401;-52
2020/12/18 08:38:19;;;;;;;27.58;16.52;;;5.80;99.90;;;;;;5049120;28;20414;-53
2020/12/18 08:40:45;;;;;;;25.20;15.95;;;5.80;99.90;;;;;;5048814;28;20394;-52
2020/12/18 08:43:11;;;;;;;30.67;15.20;;;5.90;99.90;;;;;;5047952;28;20386;-55
2020/12/18 08:45:43;;;;;;;24.75;14.75;;;5.90;99.90;;;;;;5049276;28;20404;-51
2020/12/18 08:48:10;;;;;;;21.70;13.70;;;8.10;99.90;;;;;;5049116;28;20447;-54
2020/12/18 08:50:37;;;;;;;23.23;14.38;;;6.00;99.90;;;;;;5048467;28;20413;-52
2020/12/18 08:53:14;;;;;;;23.83;16.10;;;6.20;99.90;;;;;;5049600;28;20382;-52
2020/12/18 08:55:40;;;;;;;21.08;15.95;;;6.30;99.90;;;;;;5049311;28;20381;-52
2020/12/18 08:58:10;;;;;;;26.35;16.27;;;6.50;99.90;;;;;;5048843;28;20405;-52
2020/12/18 09:00:36;;;;;;;21.90;16.30;;;6.60;99.90;;;;;;5049832;28;20389;-52
2020/12/18 09:03:03;;;;;;;24.15;16.80;;;6.60;99.90;;;;;;5050709;28;20373;-52
2020/12/18 09:05:42;;;;;;;23.30;15.43;;;6.80;99.90;;;;;;5049528;28;20452;-52
2020/12/18 09:08:16;;;;;;;21.33;14.83;;;6.80;99.90;;;;;;5042576;28;20412;-55
2020/12/18 09:10:51;;;;;;;20.63;15.18;;;6.80;99.90;;;;;;5050018;28;20392;-51
2020/12/18 09:13:17;;;;;;;22.17;14.70;;;6.80;99.90;;;;;;5049705;28;20855;-52
2020/12/18 09:15:44;;;;;;;19.75;13.35;;;6.90;99.90;;;;;;5049824;28;20400;-51
2020/12/18 09:18:15;;;;;;;21.20;13.20;;;6.90;99.90;;;;;;5049655;28;20865;-52
2020/12/18 09:20:43;;;;;;;20.25;13.10;;;6.80;99.90;;;;;;5048099;28;20846;-51
2020/12/18 09:23:13;;;;;;;26.10;13.57;;;6.90;99.90;;;;;;5048099;28;20409;-55
2020/12/18 09:25:49;;;;;;;26.30;15.93;;;7.20;99.90;;;;;;5048473;28;20393;-52
2020/12/18 09:28:20;;;;;;;22.48;14.02;;;7.30;99.90;;;;;;5047478;28;20408;-53
2020/12/18 09:30:53;;;;;;;20.58;14.00;;;7.60;99.90;;;;;;5048038;28;20414;-52
2020/12/18 09:33:30;;;;;;;24.27;14.40;;;8.00;99.90;;;;;;5047192;28;20427;-53
2020/12/18 09:36:12;;;;;;;21.27;12.27;;;8.60;99.90;;;;;;5046787;28;20396;-53
2020/12/18 09:38:43;;;;;;;19.63;11.80;;;9.70;99.90;;;;;;5047697;28;20421;-53
2020/12/18 09:41:15;;;;;;;16.90;12.15;;;11.20;99.90;;;;;;5046630;28;20429;-56
2020/12/18 09:43:41;;;;;;;17.45;11.65;;;9.70;99.90;;;;;;5049216;28;20386;-53
2020/12/18 09:46:11;;;;;;;19.07;12.77;;;13.90;99.90;;;;;;5046993;28;20481;-56
2020/12/18 09:48:39;;;;;;;17.67;12.13;;;15.20;99.90;;;;;;5048916;28;20389;-54
2020/12/18 09:51:04;;;;;;;19.63;11.60;;;16.50;99.90;;;;;;5045050;28;20977;-54
2020/12/18 09:53:30;;;;;;;20.33;11.45;;;16.90;99.90;;;;;;5048072;28;20381;-53
2020/12/18 09:55:56;;;;;;;21.07;12.40;;;17.10;99.90;;;;;;5045865;28;20632;-54
2020/12/18 09:58:21;;;;;;;22.43;11.57;;;17.50;99.90;;;;;;5048136;28;20433;-53
2020/12/18 10:00:48;;;;;;;21.50;11.50;;;16.90;99.90;;;;;;5047359;28;20771;-53
2020/12/18 10:03:13;;;;;;;18.55;11.25;;;15.50;99.90;;;;;;5047586;28;20869;-53
2020/12/18 10:05:39;;;;;;;19.53;12.27;;;13.80;99.90;;;;;;5047134;28;20401;-54
2020/12/18 10:08:05;;;;;;;18.08;11.68;;;12.50;99.90;;;;;;5047788;28;20419;-53
2020/12/18 10:10:31;;;;;;;19.10;14.00;;;12.00;99.90;;;;;;5048781;28;20377;-54
2020/12/18 10:12:58;;;;;;;18.27;14.80;;;12.10;99.90;;;;;;5049538;28;20431;-53
2020/12/18 10:15:24;;;;;;;20.23;12.35;;;12.00;99.90;;;;;;5047112;28;20394;-53
2020/12/18 10:17:50;;;;;;;19.33;12.45;;;11.70;99.90;;;;;;5047083;28;20397;-53
2020/12/18 10:20:16;;;;;;;19.85;12.90;;;11.50;99.90;;;;;;5047123;28;20446;-53
2020/12/18 10:22:42;;;;;;;19.58;13.00;;;11.10;99.90;;;;;;5049080;28;20859;-53
2020/12/18 10:25:08;;;;;;;20.10;12.80;;;11.10;99.90;;;;;;5046767;28;20420;-55
2020/12/18 10:27:35;;;;;;;18.02;12.00;;;11.00;99.90;;;;;;5047996;28;20475;-52
2020/12/18 10:30:01;;;;;;;18.52;12.60;;;11.20;99.90;;;;;;5044793;28;20515;-53
2020/12/18 10:32:28;;;;;;;18.63;11.70;;;12.00;99.90;;;;;;5047849;28;20516;-53
2020/12/18 10:34:54;;;;;;;19.40;11.68;;;13.00;99.90;;;;;;5048522;28;20389;-52
2020/12/18 10:37:21;;;;;;;18.50;11.35;;;14.30;99.90;;;;;;5046034;28;20393;-53
2020/12/18 10:39:47;;;;;;;17.70;11.32;;;15.30;99.90;;;;;;5028072;28;20512;-53
2020/12/18 10:42:12;;;;;;;16.93;12.43;;;16.50;99.90;;;;;;5047173;28;20854;-53
2020/12/18 10:44:39;;;;;;;16.20;11.20;;;17.20;99.90;;;;;;5047015;28;20493;-54
2020/12/18 10:47:05;;;;;;;19.90;12.60;;;17.20;99.90;;;;;;5048811;28;20417;-52
2020/12/18 10:49:30;;;;;;;16.37;11.70;;;18.00;99.90;;;;;;5047119;28;20405;-52
2020/12/18 10:51:56;;;;;;;15.20;10.95;;;18.40;99.90;;;;;;5030550;28;20462;-53
2020/12/18 10:54:22;;;;;;;15.90;11.80;;;18.40;99.90;;;;;;5050897;28;20775;-52
2020/12/18 10:56:50;;;;;;;16.95;12.43;;;18.70;99.90;;;;;;5051281;28;20866;-51
2020/12/18 10:59:16;;;;;;;15.63;12.30;;;18.50;99.90;;;;;;5052042;28;20543;-51
2020/12/18 11:01:41;;;;;;;17.85;11.75;;;18.30;99.90;;;;;;5051522;28;20961;-52
2020/12/18 11:04:07;;;;;;;17.60;12.57;;;17.90;99.90;;;;;;5051464;28;20882;-52
2020/12/18 11:06:38;;;;;;;17.23;12.27;;;17.30;99.90;;;;;;5030580;28;20383;-53
2020/12/18 11:09:04;;;;;;;18.52;12.82;;;16.70;99.90;;;;;;5046694;28;20408;-51
2020/12/18 11:11:30;;;;;;;17.10;12.88;;;16.80;99.90;;;;;;5052077;28;20374;-51
2020/12/18 11:13:56;;;;;;;17.63;13.00;;;16.80;99.90;;;;;;5051584;28;20484;-51
2020/12/18 11:16:22;;;;;;;16.67;12.10;;;16.60;99.90;;;;;;5051736;28;20385;-52
2020/12/18 11:18:48;;;;;;;16.15;11.68;;;16.10;99.90;;;;;;5050417;28;20423;-52
2020/12/18 11:21:14;;;;;;;17.30;11.87;;;15.60;99.90;;;;;;5051770;28;20862;-52
2020/12/18 11:23:40;;;;;;;17.92;12.02;;;15.60;99.90;;;;;;5051111;28;20470;-55
2020/12/18 11:26:06;;;;;;;16.90;11.23;;;15.40;99.90;;;;;;5050959;28;20804;-52
2020/12/18 11:28:32;;;;;;;17.58;12.00;;;15.10;99.90;;;;;;5050844;28;20930;-52
2020/12/18 11:31:00;;;;;;;16.80;12.27;;;14.90;99.90;;;;;;5047596;28;20440;-52
2020/12/18 11:33:25;;;;;;;18.73;12.60;;;14.40;99.90;;;;;;5045832;28;20389;-52
2020/12/18 11:35:51;;;;;;;18.23;12.30;;;13.30;99.90;;;;;;5050170;28;20777;-52
2020/12/18 11:38:17;;;;;;;20.20;12.57;;;12.90;99.90;;;;;;5050815;28;20401;-52
2020/12/18 11:40:42;;;;;;;17.67;12.80;;;12.60;99.90;;;;;;5049401;28;20401;-52
2020/12/18 11:43:09;;;;;;;16.65;11.93;;;12.50;99.90;;;;;;5050293;28;20824;-55
2020/12/18 11:45:35;;;;;;;19.20;12.53;;;12.30;99.90;;;;;;5049135;28;20413;-52
2020/12/18 11:48:01;;;;;;;19.73;12.07;;;11.70;99.90;;;;;;5049746;28;20750;-52
2020/12/18 11:50:29;;;;;;;18.70;13.63;;;11.70;99.90;;;;;;5049605;28;20850;-52
2020/12/18 11:52:59;;;;;;;20.70;13.60;;;11.70;99.90;;;;;;5050172;28;20954;-52
2020/12/18 11:55:26;;;;;;;22.08;13.05;;;11.80;99.90;;;;;;5050145;28;20398;-53
2020/12/18 11:57:52;;;;;;;22.57;14.07;;;11.90;99.90;;;;;;5050528;28;20467;-52
2020/12/18 12:00:21;;;;;;;22.83;14.33;;;12.20;99.90;;;;;;5050831;28;20401;-53
2020/12/18 12:02:51;;;;;;;22.13;13.50;;;12.40;99.90;;;;;;5050444;28;20454;-53
2020/12/18 12:05:18;;;;;;;21.77;13.73;;;12.70;99.90;;;;;;5045205;28;20378;-52
2020/12/18 12:07:43;;;;;;;18.80;12.43;;;12.70;99.90;;;;;;5050750;28;20386;-53
2020/12/18 12:10:10;;;;;;;26.73;16.20;;;12.80;99.90;;;;;;5049653;28;20431;-53
2020/12/18 12:12:36;;;;;;;24.98;14.18;;;12.70;99.90;;;;;;5051180;28;20445;-52
2020/12/18 12:15:04;;;;;;;20.67;13.60;;;12.90;99.90;;;;;;5064403;28;20492;-53
2020/12/18 12:17:30;;;;;;;19.17;12.10;;;13.00;99.90;;;;;;5049852;28;20419;-53
2020/12/18 12:19:55;;;;;;;17.80;12.23;;;12.90;99.90;;;;;;5050144;28;20417;-53
2020/12/18 12:22:22;;;;;;;17.75;12.13;;;12.90;99.90;;;;;;5046663;28;20409;-53
2020/12/18 12:24:48;;;;;;;19.65;12.73;;;12.70;99.90;;;;;;5044942;28;20412;-53
2020/12/18 12:27:13;;;;;;;17.73;12.02;;;12.90;99.90;;;;;;5049551;28;20381;-52
2020/12/18 12:29:39;;;;;;;17.13;11.57;;;13.00;99.90;;;;;;5049038;28;20785;-52
2020/12/18 12:32:06;;;;;;;17.30;12.20;;;13.10;99.90;;;;;;5048923;28;20401;-52
2020/12/18 12:34:32;;;;;;;17.50;11.98;;;13.10;99.90;;;;;;5049681;28;20463;-52
2020/12/18 12:37:00;;;;;;;20.60;13.07;;;13.30;99.90;;;;;;5049208;28;20480;-53
2020/12/18 12:39:26;;;;;;;19.63;12.88;;;13.10;99.90;;;;;;5049058;28;20498;-52